sensor_id;sensor_type;location;lat;lon;timestamp;pressure;altitude;pressure_sealevel;temperature;humidity
7660;BME280;3872;47.902;8.162;2023-04-06T00:00:10;91979.31;;;0.96;79.65
7660;BME280;3872;47.902;8.162;2023-04-06T00:02:37;91969.25;;;0.83;81.15
7660;BME280;3872;47.902;8.162;2023-04-06T00:05:04;91963.50;;;0.81;84.53
7660;BME280;3872;47.902;8.162;2023-04-06T00:07:31;91974.88;;;0.80;81.64
7660;BME280;3872;47.902;8.162;2023-04-06T00:09:58;91973.56;;;0.66;81.97
7660;BME280;3872;47.902;8.162;2023-04-06T00:12:25;91968.41;;;0.66;80.19
7660;BME280;3872;47.902;8.162;2023-04-06T00:14:51;91968.97;;;0.68;84.55
7660;BME280;3872;47.902;8.162;2023-04-06T00:17:19;91971.09;;;0.71;84.50
7660;BME280;3872;47.902;8.162;2023-04-06T00:19:46;91957.53;;;0.81;83.51
7660;BME280;3872;47.902;8.162;2023-04-06T00:22:12;91960.53;;;0.61;86.46
7660;BME280;3872;47.902;8.162;2023-04-06T00:24:39;91961.56;;;0.60;85.70
7660;BME280;3872;47.902;8.162;2023-04-06T00:27:05;91963.22;;;0.66;84.34
7660;BME280;3872;47.902;8.162;2023-04-06T00:29:32;91954.44;;;0.67;84.95
7660;BME280;3872;47.902;8.162;2023-04-06T00:31:59;91958.75;;;0.61;85.38
7660;BME280;3872;47.902;8.162;2023-04-06T00:34:27;91955.22;;;-0.24;90.05
7660;BME280;3872;47.902;8.162;2023-04-06T00:36:53;91954.78;;;-0.68;98.39
7660;BME280;3872;47.902;8.162;2023-04-06T00:39:20;91950.06;;;-0.71;100.00
7660;BME280;3872;47.902;8.162;2023-04-06T00:41:49;91961.16;;;-0.82;100.00
7660;BME280;3872;47.902;8.162;2023-04-06T00:44:17;91961.59;;;-0.85;99.54
7660;BME280;3872;47.902;8.162;2023-04-06T00:46:44;91940.72;;;-0.84;100.00
7660;BME280;3872;47.902;8.162;2023-04-06T00:49:11;91948.38;;;-0.77;100.00
7660;BME280;3872;47.902;8.162;2023-04-06T00:51:38;91950.69;;;-1.10;100.00
7660;BME280;3872;47.902;8.162;2023-04-06T00:54:05;91946.78;;;-1.01;100.00
7660;BME280;3872;47.902;8.162;2023-04-06T00:56:34;91946.03;;;-1.20;100.00
7660;BME280;3872;47.902;8.162;2023-04-06T00:59:01;91950.06;;;-1.36;100.00
7660;BME280;3872;47.902;8.162;2023-04-06T01:01:29;91947.31;;;-1.11;100.00
7660;BME280;3872;47.902;8.162;2023-04-06T01:04:01;91948.41;;;-1.19;100.00
7660;BME280;3872;47.902;8.162;2023-04-06T01:06:28;91945.72;;;-1.12;100.00
7660;BME280;3872;47.902;8.162;2023-04-06T01:09:02;91949.78;;;-1.16;100.00
7660;BME280;3872;47.902;8.162;2023-04-06T01:11:28;91938.66;;;-1.05;100.00
7660;BME280;3872;47.902;8.162;2023-04-06T01:13:55;91950.09;;;-1.12;100.00
7660;BME280;3872;47.902;8.162;2023-04-06T01:16:48;91941.97;;;-1.39;100.00
7660;BME280;3872;47.902;8.162;2023-04-06T01:19:18;91936.59;;;-1.26;100.00
7660;BME280;3872;47.902;8.162;2023-04-06T01:21:49;91934.41;;;-1.11;100.00
7660;BME280;3872;47.902;8.162;2023-04-06T01:24:40;91936.28;;;-1.30;100.00
7660;BME280;3872;47.902;8.162;2023-04-06T01:27:21;91931.00;;;-1.23;100.00
7660;BME280;3872;47.902;8.162;2023-04-06T01:30:08;91933.47;;;-1.28;100.00
7660;BME280;3872;47.902;8.162;2023-04-06T01:32:45;91925.34;;;-1.43;100.00
7660;BME280;3872;47.902;8.162;2023-04-06T01:35:32;91929.50;;;-1.42;100.00
7660;BME280;3872;47.902;8.162;2023-04-06T01:38:11;91931.00;;;-1.65;100.00
7660;BME280;3872;47.902;8.162;2023-04-06T01:40:39;91925.75;;;-1.58;100.00
7660;BME280;3872;47.902;8.162;2023-04-06T01:43:05;91925.47;;;-1.38;100.00
7660;BME280;3872;47.902;8.162;2023-04-06T01:45:48;91924.78;;;-1.45;100.00
7660;BME280;3872;47.902;8.162;2023-04-06T01:48:18;91919.41;;;-1.32;100.00
7660;BME280;3872;47.902;8.162;2023-04-06T01:50:45;91911.69;;;-1.21;100.00
7660;BME280;3872;47.902;8.162;2023-04-06T01:53:16;91921.91;;;-1.26;100.00
7660;BME280;3872;47.902;8.162;2023-04-06T01:55:45;91916.22;;;-1.16;99.97
7660;BME280;3872;47.902;8.162;2023-04-06T01:58:30;91911.00;;;-1.28;100.00
7660;BME280;3872;47.902;8.162;2023-04-06T02:00:57;91916.06;;;-1.33;100.00
7660;BME280;3872;47.902;8.162;2023-04-06T02:03:24;91917.22;;;-1.59;100.00
7660;BME280;3872;47.902;8.162;2023-04-06T02:05:59;91910.28;;;-1.58;100.00
7660;BME280;3872;47.902;8.162;2023-04-06T02:08:31;91909.13;;;-1.62;100.00
7660;BME280;3872;47.902;8.162;2023-04-06T02:10:59;91917.69;;;-1.50;100.00
7660;BME280;3872;47.902;8.162;2023-04-06T02:13:33;91920.41;;;-1.45;100.00
7660;BME280;3872;47.902;8.162;2023-04-06T02:16:00;91921.44;;;-1.34;100.00
7660;BME280;3872;47.902;8.162;2023-04-06T02:18:28;91910.50;;;-1.48;100.00
7660;BME280;3872;47.902;8.162;2023-04-06T02:20:54;91916.22;;;-1.58;100.00
7660;BME280;3872;47.902;8.162;2023-04-06T02:23:21;91914.09;;;-2.09;100.00
7660;BME280;3872;47.902;8.162;2023-04-06T02:25:48;91912.75;;;-1.81;100.00
7660;BME280;3872;47.902;8.162;2023-04-06T02:28:16;91909.28;;;-1.75;100.00
7660;BME280;3872;47.902;8.162;2023-04-06T02:30:43;91918.78;;;-1.87;100.00
7660;BME280;3872;47.902;8.162;2023-04-06T02:33:10;91911.22;;;-2.01;100.00
7660;BME280;3872;47.902;8.162;2023-04-06T02:35:44;91913.16;;;-2.32;100.00
7660;BME280;3872;47.902;8.162;2023-04-06T02:38:10;91911.09;;;-2.24;100.00
7660;BME280;3872;47.902;8.162;2023-04-06T02:40:38;91908.22;;;-2.16;100.00
7660;BME280;3872;47.902;8.162;2023-04-06T02:43:16;91907.00;;;-2.31;100.00
7660;BME280;3872;47.902;8.162;2023-04-06T02:45:43;91907.09;;;-2.38;100.00
7660;BME280;3872;47.902;8.162;2023-04-06T02:48:10;91907.38;;;-2.46;100.00
7660;BME280;3872;47.902;8.162;2023-04-06T02:50:37;91907.03;;;-2.50;100.00
7660;BME280;3872;47.902;8.162;2023-04-06T02:53:06;91906.78;;;-2.66;100.00
7660;BME280;3872;47.902;8.162;2023-04-06T02:55:33;91912.00;;;-2.73;100.00
7660;BME280;3872;47.902;8.162;2023-04-06T02:58:00;91903.06;;;-2.70;100.00
7660;BME280;3872;47.902;8.162;2023-04-06T03:00:35;91902.16;;;-2.58;100.00
7660;BME280;3872;47.902;8.162;2023-04-06T03:03:02;91898.22;;;-2.42;100.00
7660;BME280;3872;47.902;8.162;2023-04-06T03:05:28;91899.06;;;-2.66;100.00
7660;BME280;3872;47.902;8.162;2023-04-06T03:07:56;91894.75;;;-2.54;100.00
7660;BME280;3872;47.902;8.162;2023-04-06T03:10:35;91896.63;;;-2.61;100.00
7660;BME280;3872;47.902;8.162;2023-04-06T03:13:02;91893.53;;;-2.88;100.00
7660;BME280;3872;47.902;8.162;2023-04-06T03:15:43;91897.03;;;-2.83;100.00
7660;BME280;3872;47.902;8.162;2023-04-06T03:18:14;91893.53;;;-2.88;100.00
7660;BME280;3872;47.902;8.162;2023-04-06T03:20:45;91899.19;;;-2.80;100.00
7660;BME280;3872;47.902;8.162;2023-04-06T03:23:14;91900.31;;;-2.76;100.00
7660;BME280;3872;47.902;8.162;2023-04-06T03:25:42;91906.13;;;-2.62;100.00
7660;BME280;3872;47.902;8.162;2023-04-06T03:28:13;91895.28;;;-2.46;100.00
7660;BME280;3872;47.902;8.162;2023-04-06T03:30:49;91899.56;;;-2.58;100.00
7660;BME280;3872;47.902;8.162;2023-04-06T03:33:21;91896.03;;;-2.82;100.00
7660;BME280;3872;47.902;8.162;2023-04-06T03:35:53;91896.81;;;-2.81;100.00
7660;BME280;3872;47.902;8.162;2023-04-06T03:38:22;91899.19;;;-3.04;100.00
7660;BME280;3872;47.902;8.162;2023-04-06T03:40:48;91901.84;;;-2.86;100.00
7660;BME280;3872;47.902;8.162;2023-04-06T03:43:19;91902.63;;;-2.86;100.00
7660;BME280;3872;47.902;8.162;2023-04-06T03:45:45;91906.19;;;-2.87;100.00
7660;BME280;3872;47.902;8.162;2023-04-06T03:48:14;91898.66;;;-3.06;100.00
7660;BME280;3872;47.902;8.162;2023-04-06T03:50:41;91907.19;;;-3.12;100.00
7660;BME280;3872;47.902;8.162;2023-04-06T03:53:08;91906.78;;;-3.09;100.00
7660;BME280;3872;47.902;8.162;2023-04-06T03:55:34;91916.56;;;-2.93;100.00
7660;BME280;3872;47.902;8.162;2023-04-06T03:58:01;91911.34;;;-3.11;100.00
7660;BME280;3872;47.902;8.162;2023-04-06T04:00:27;91920.34;;;-3.21;100.00
7660;BME280;3872;47.902;8.162;2023-04-06T04:02:54;91917.28;;;-2.86;100.00
7660;BME280;3872;47.902;8.162;2023-04-06T04:05:22;91924.84;;;-2.91;100.00
7660;BME280;3872;47.902;8.162;2023-04-06T04:07:51;91921.44;;;-3.10;100.00
7660;BME280;3872;47.902;8.162;2023-04-06T04:10:19;91919.38;;;-3.01;100.00
7660;BME280;3872;47.902;8.162;2023-04-06T04:12:46;91915.19;;;-2.96;100.00
7660;BME280;3872;47.902;8.162;2023-04-06T04:15:12;91923.00;;;-3.09;100.00
7660;BME280;3872;47.902;8.162;2023-04-06T04:17:39;91924.78;;;-3.09;100.00
7660;BME280;3872;47.902;8.162;2023-04-06T04:20:06;91926.19;;;-3.07;100.00
7660;BME280;3872;47.902;8.162;2023-04-06T04:22:34;91924.31;;;-3.25;100.00
7660;BME280;3872;47.902;8.162;2023-04-06T04:25:01;91930.25;;;-3.24;100.00
7660;BME280;3872;47.902;8.162;2023-04-06T04:27:29;91932.97;;;-3.19;100.00
7660;BME280;3872;47.902;8.162;2023-04-06T04:29:57;91926.38;;;-3.08;100.00
7660;BME280;3872;47.902;8.162;2023-04-06T04:32:23;91929.13;;;-3.28;100.00
7660;BME280;3872;47.902;8.162;2023-04-06T04:34:53;91925.25;;;-3.44;100.00
7660;BME280;3872;47.902;8.162;2023-04-06T04:37:31;91927.25;;;-3.46;100.00
7660;BME280;3872;47.902;8.162;2023-04-06T04:39:59;91930.19;;;-3.18;100.00
7660;BME280;3872;47.902;8.162;2023-04-06T04:42:28;91930.75;;;-3.09;100.00
7660;BME280;3872;47.902;8.162;2023-04-06T04:44:57;91924.97;;;-3.29;100.00
7660;BME280;3872;47.902;8.162;2023-04-06T04:47:33;91926.44;;;-3.46;100.00
7660;BME280;3872;47.902;8.162;2023-04-06T04:49:59;91926.53;;;-3.60;100.00
7660;BME280;3872;47.902;8.162;2023-04-06T04:52:26;91933.50;;;-3.35;100.00
7660;BME280;3872;47.902;8.162;2023-04-06T04:55:01;91933.41;;;-3.22;100.00
7660;BME280;3872;47.902;8.162;2023-04-06T04:57:28;91930.19;;;-3.18;100.00
7660;BME280;3872;47.902;8.162;2023-04-06T04:59:55;91929.97;;;-3.41;100.00
7660;BME280;3872;47.902;8.162;2023-04-06T05:02:22;91928.94;;;-3.33;100.00
7660;BME280;3872;47.902;8.162;2023-04-06T05:05:08;91932.19;;;-3.20;100.00
7660;BME280;3872;47.902;8.162;2023-04-06T05:07:35;91938.41;;;-3.59;100.00
7660;BME280;3872;47.902;8.162;2023-04-06T05:10:04;91935.03;;;-3.28;100.00
7660;BME280;3872;47.902;8.162;2023-04-06T05:12:36;91930.19;;;-3.42;100.00
7660;BME280;3872;47.902;8.162;2023-04-06T05:15:09;91930.81;;;-3.47;100.00
7660;BME280;3872;47.902;8.162;2023-04-06T05:17:36;91931.78;;;-3.48;100.00
7660;BME280;3872;47.902;8.162;2023-04-06T05:20:06;91932.94;;;-3.37;100.00
7660;BME280;3872;47.902;8.162;2023-04-06T05:22:39;91933.72;;;-3.37;100.00
7660;BME280;3872;47.902;8.162;2023-04-06T05:25:10;91945.44;;;-3.16;100.00
7660;BME280;3872;47.902;8.162;2023-04-06T05:27:38;91944.84;;;-3.18;100.00
7660;BME280;3872;47.902;8.162;2023-04-06T05:30:12;91945.09;;;-3.26;100.00
7660;BME280;3872;47.902;8.162;2023-04-06T05:32:43;91945.84;;;-3.19;100.00
7660;BME280;3872;47.902;8.162;2023-04-06T05:35:09;91949.34;;;-3.07;100.00
7660;BME280;3872;47.902;8.162;2023-04-06T05:37:36;91948.44;;;-2.94;100.00
7660;BME280;3872;47.902;8.162;2023-04-06T05:40:04;91949.16;;;-3.12;100.00
7660;BME280;3872;47.902;8.162;2023-04-06T05:42:38;91951.31;;;-3.09;100.00
7660;BME280;3872;47.902;8.162;2023-04-06T05:45:07;91940.56;;;-3.24;100.00
7660;BME280;3872;47.902;8.162;2023-04-06T05:47:34;91948.84;;;-3.22;100.00
7660;BME280;3872;47.902;8.162;2023-04-06T05:50:11;91949.09;;;-3.05;100.00
7660;BME280;3872;47.902;8.162;2023-04-06T05:52:39;91958.34;;;-3.23;100.00
7660;BME280;3872;47.902;8.162;2023-04-06T05:55:10;91956.47;;;-3.09;100.00
7660;BME280;3872;47.902;8.162;2023-04-06T05:57:41;91952.28;;;-3.03;100.00
7660;BME280;3872;47.902;8.162;2023-04-06T06:00:10;91953.91;;;-3.09;100.00
7660;BME280;3872;47.902;8.162;2023-04-06T06:02:48;91949.94;;;-3.11;100.00
7660;BME280;3872;47.902;8.162;2023-04-06T06:05:18;91948.97;;;-2.86;100.00
7660;BME280;3872;47.902;8.162;2023-04-06T06:07:46;91953.16;;;-2.91;100.00
7660;BME280;3872;47.902;8.162;2023-04-06T06:10:13;91963.25;;;-2.90;100.00
7660;BME280;3872;47.902;8.162;2023-04-06T06:12:39;91959.00;;;-2.78;100.00
7660;BME280;3872;47.902;8.162;2023-04-06T06:15:08;91964.78;;;-2.82;100.00
7660;BME280;3872;47.902;8.162;2023-04-06T06:17:39;91961.34;;;-2.76;100.00
7660;BME280;3872;47.902;8.162;2023-04-06T06:20:07;91963.25;;;-2.47;100.00
7660;BME280;3872;47.902;8.162;2023-04-06T06:22:34;91965.28;;;-2.12;100.00
7660;BME280;3872;47.902;8.162;2023-04-06T06:25:01;91961.38;;;-1.67;100.00
7660;BME280;3872;47.902;8.162;2023-04-06T06:27:27;91961.09;;;-1.29;100.00
7660;BME280;3872;47.902;8.162;2023-04-06T06:29:54;91952.53;;;-0.88;100.00
7660;BME280;3872;47.902;8.162;2023-04-06T06:32:23;91956.69;;;-0.75;100.00
7660;BME280;3872;47.902;8.162;2023-04-06T06:34:52;91954.53;;;-0.90;100.00
7660;BME280;3872;47.902;8.162;2023-04-06T06:37:18;91950.50;;;-0.62;100.00
7660;BME280;3872;47.902;8.162;2023-04-06T06:39:46;91952.88;;;-0.26;100.00
7660;BME280;3872;47.902;8.162;2023-04-06T06:42:13;91948.91;;;-0.05;100.00
7660;BME280;3872;47.902;8.162;2023-04-06T06:44:45;91951.09;;;0.15;100.00
7660;BME280;3872;47.902;8.162;2023-04-06T06:47:12;91954.91;;;0.35;100.00
7660;BME280;3872;47.902;8.162;2023-04-06T06:49:39;91947.91;;;0.64;100.00
7660;BME280;3872;47.902;8.162;2023-04-06T06:52:06;91950.31;;;0.83;100.00
7660;BME280;3872;47.902;8.162;2023-04-06T06:54:32;91942.97;;;1.08;100.00
7660;BME280;3872;47.902;8.162;2023-04-06T06:56:59;91951.53;;;0.92;100.00
7660;BME280;3872;47.902;8.162;2023-04-06T06:59:26;91947.28;;;1.02;100.00
7660;BME280;3872;47.902;8.162;2023-04-06T07:01:52;91948.22;;;0.96;100.00
7660;BME280;3872;47.902;8.162;2023-04-06T07:04:19;91938.44;;;1.32;100.00
7660;BME280;3872;47.902;8.162;2023-04-06T07:06:47;91943.69;;;1.37;100.00
7660;BME280;3872;47.902;8.162;2023-04-06T07:09:13;91941.09;;;1.37;99.47
7660;BME280;3872;47.902;8.162;2023-04-06T07:11:40;91939.34;;;1.76;99.88
7660;BME280;3872;47.902;8.162;2023-04-06T07:14:07;91944.69;;;2.29;96.93
7660;BME280;3872;47.902;8.162;2023-04-06T07:16:33;91940.81;;;1.88;96.81
7660;BME280;3872;47.902;8.162;2023-04-06T07:19:00;91944.63;;;2.46;94.00
7660;BME280;3872;47.902;8.162;2023-04-06T07:21:26;91946.22;;;2.47;90.53
7660;BME280;3872;47.902;8.162;2023-04-06T07:23:54;91940.72;;;2.70;87.69
7660;BME280;3872;47.902;8.162;2023-04-06T07:26:21;91938.94;;;2.98;82.28
7660;BME280;3872;47.902;8.162;2023-04-06T07:28:47;91938.34;;;2.91;81.52
7660;BME280;3872;47.902;8.162;2023-04-06T07:31:14;91934.56;;;3.35;81.28
7660;BME280;3872;47.902;8.162;2023-04-06T07:33:40;91929.69;;;3.76;75.09
7660;BME280;3872;47.902;8.162;2023-04-06T07:36:07;91926.63;;;3.89;73.49
7660;BME280;3872;47.902;8.162;2023-04-06T07:38:33;91934.03;;;4.12;70.58
7660;BME280;3872;47.902;8.162;2023-04-06T07:41:02;91922.66;;;4.23;67.12
7660;BME280;3872;47.902;8.162;2023-04-06T07:43:29;91928.78;;;4.69;64.13
7660;BME280;3872;47.902;8.162;2023-04-06T07:45:56;91926.97;;;4.65;63.68
7660;BME280;3872;47.902;8.162;2023-04-06T07:48:25;91924.69;;;4.94;63.61
7660;BME280;3872;47.902;8.162;2023-04-06T07:50:54;91930.44;;;4.96;64.08
7660;BME280;3872;47.902;8.162;2023-04-06T07:53:26;91929.38;;;4.82;63.69
7660;BME280;3872;47.902;8.162;2023-04-06T07:55:53;91929.19;;;5.29;63.80
7660;BME280;3872;47.902;8.162;2023-04-06T07:58:22;91923.16;;;5.69;60.16
7660;BME280;3872;47.902;8.162;2023-04-06T08:00:48;91923.97;;;5.69;62.26
7660;BME280;3872;47.902;8.162;2023-04-06T08:03:15;91930.66;;;6.46;60.28
7660;BME280;3872;47.902;8.162;2023-04-06T08:05:42;91921.19;;;6.60;57.71
7660;BME280;3872;47.902;8.162;2023-04-06T08:08:09;91923.22;;;6.74;59.44
7660;BME280;3872;47.902;8.162;2023-04-06T08:10:35;91926.31;;;6.76;59.71
7660;BME280;3872;47.902;8.162;2023-04-06T08:13:02;91924.00;;;7.18;58.35
7660;BME280;3872;47.902;8.162;2023-04-06T08:15:29;91921.75;;;8.03;53.90
7660;BME280;3872;47.902;8.162;2023-04-06T08:17:56;91923.50;;;7.55;55.04
7660;BME280;3872;47.902;8.162;2023-04-06T08:20:23;91918.75;;;7.57;48.20
7660;BME280;3872;47.902;8.162;2023-04-06T08:22:49;91909.28;;;8.24;46.85
7660;BME280;3872;47.902;8.162;2023-04-06T08:25:16;91910.03;;;8.24;44.31
7660;BME280;3872;47.902;8.162;2023-04-06T08:27:42;91903.84;;;9.06;43.00
7660;BME280;3872;47.902;8.162;2023-04-06T08:30:09;91906.22;;;9.45;41.20
7660;BME280;3872;47.902;8.162;2023-04-06T08:32:37;91903.84;;;9.43;39.07
7660;BME280;3872;47.902;8.162;2023-04-06T08:35:06;91905.91;;;9.65;41.07
7660;BME280;3872;47.902;8.162;2023-04-06T08:37:34;91902.97;;;9.66;37.05
7660;BME280;3872;47.902;8.162;2023-04-06T08:40:00;91901.47;;;9.09;37.57
7660;BME280;3872;47.902;8.162;2023-04-06T08:42:32;91908.94;;;9.72;36.37
7660;BME280;3872;47.902;8.162;2023-04-06T08:44:59;91905.75;;;9.89;37.62
7660;BME280;3872;47.902;8.162;2023-04-06T08:47:26;91910.09;;;9.47;38.13
7660;BME280;3872;47.902;8.162;2023-04-06T08:49:54;91905.00;;;10.02;37.38
7660;BME280;3872;47.902;8.162;2023-04-06T08:52:22;91902.97;;;9.99;37.54
7660;BME280;3872;47.902;8.162;2023-04-06T08:54:51;91910.09;;;9.10;36.02
7660;BME280;3872;47.902;8.162;2023-04-06T08:57:18;91911.47;;;8.64;37.31
7660;BME280;3872;47.902;8.162;2023-04-06T08:59:45;91910.69;;;8.64;36.67
7660;BME280;3872;47.902;8.162;2023-04-06T09:02:17;91903.34;;;9.03;35.32
7660;BME280;3872;47.902;8.162;2023-04-06T09:04:45;91907.13;;;9.86;35.58
7660;BME280;3872;47.902;8.162;2023-04-06T09:07:13;91901.59;;;10.61;33.35
7660;BME280;3872;47.902;8.162;2023-04-06T09:09:40;91907.09;;;10.51;34.49
7660;BME280;3872;47.902;8.162;2023-04-06T09:12:22;91911.06;;;11.39;32.93
7660;BME280;3872;47.902;8.162;2023-04-06T09:14:48;91910.81;;;10.17;33.90
7660;BME280;3872;47.902;8.162;2023-04-06T09:17:20;91898.44;;;9.72;34.98
7660;BME280;3872;47.902;8.162;2023-04-06T09:19:47;91908.81;;;10.09;33.82
7660;BME280;3872;47.902;8.162;2023-04-06T09:22:15;91915.75;;;10.05;34.36
7660;BME280;3872;47.902;8.162;2023-04-06T09:24:43;91917.75;;;9.25;35.91
7660;BME280;3872;47.902;8.162;2023-04-06T09:27:10;91902.72;;;9.81;35.64
7660;BME280;3872;47.902;8.162;2023-04-06T09:29:37;91918.63;;;9.01;37.14
7660;BME280;3872;47.902;8.162;2023-04-06T09:32:04;91918.97;;;9.14;37.62
7660;BME280;3872;47.902;8.162;2023-04-06T09:34:31;91916.69;;;11.10;34.94
7660;BME280;3872;47.902;8.162;2023-04-06T09:36:58;91913.41;;;10.36;35.81
7660;BME280;3872;47.902;8.162;2023-04-06T09:39:26;91912.84;;;11.30;34.35
7660;BME280;3872;47.902;8.162;2023-04-06T09:41:53;91912.16;;;11.96;31.81
7660;BME280;3872;47.902;8.162;2023-04-06T09:44:21;91917.56;;;9.91;34.39
7660;BME280;3872;47.902;8.162;2023-04-06T09:46:49;91919.84;;;10.57;33.28
7660;BME280;3872;47.902;8.162;2023-04-06T09:49:15;91903.53;;;12.35;31.58
7660;BME280;3872;47.902;8.162;2023-04-06T09:51:45;91905.25;;;12.79;30.44
7660;BME280;3872;47.902;8.162;2023-04-06T09:54:17;91908.09;;;12.91;30.09
7660;BME280;3872;47.902;8.162;2023-04-06T09:56:47;91901.59;;;12.98;30.82
7660;BME280;3872;47.902;8.162;2023-04-06T09:59:21;91903.44;;;12.49;30.12
7660;BME280;3872;47.902;8.162;2023-04-06T10:01:53;91903.41;;;11.73;32.11
7660;BME280;3872;47.902;8.162;2023-04-06T10:04:31;91910.94;;;11.08;31.76
7660;BME280;3872;47.902;8.162;2023-04-06T10:07:04;91899.09;;;12.92;28.86
7660;BME280;3872;47.902;8.162;2023-04-06T10:09:35;91903.00;;;12.25;32.07
7660;BME280;3872;47.902;8.162;2023-04-06T10:12:05;91907.41;;;13.17;32.14
7660;BME280;3872;47.902;8.162;2023-04-06T10:14:33;91900.78;;;13.71;31.50
7660;BME280;3872;47.902;8.162;2023-04-06T10:17:02;91914.69;;;12.72;31.66
7660;BME280;3872;47.902;8.162;2023-04-06T10:19:34;91907.72;;;13.24;31.63
7660;BME280;3872;47.902;8.162;2023-04-06T10:22:05;91914.81;;;12.58;32.56
7660;BME280;3872;47.902;8.162;2023-04-06T10:24:35;91905.13;;;12.45;32.68
7660;BME280;3872;47.902;8.162;2023-04-06T10:27:04;91901.22;;;13.64;32.09
7660;BME280;3872;47.902;8.162;2023-04-06T10:29:43;91901.53;;;13.46;31.12
7660;BME280;3872;47.902;8.162;2023-04-06T10:32:11;91901.31;;;14.54;29.74
7660;BME280;3872;47.902;8.162;2023-04-06T10:34:38;91900.25;;;14.84;29.91
7660;BME280;3872;47.902;8.162;2023-04-06T10:37:12;91898.19;;;14.90;29.25
7660;BME280;3872;47.902;8.162;2023-04-06T10:39:46;91908.72;;;12.88;30.21
7660;BME280;3872;47.902;8.162;2023-04-06T10:42:15;91899.19;;;12.39;32.80
7660;BME280;3872;47.902;8.162;2023-04-06T10:44:42;91900.75;;;12.40;32.50
7660;BME280;3872;47.902;8.162;2023-04-06T10:47:16;91909.66;;;13.01;32.36
7660;BME280;3872;47.902;8.162;2023-04-06T10:49:43;91916.69;;;11.82;33.76
7660;BME280;3872;47.902;8.162;2023-04-06T10:52:10;91911.84;;;12.20;33.38
7660;BME280;3872;47.902;8.162;2023-04-06T10:54:41;91911.47;;;12.75;33.53
7660;BME280;3872;47.902;8.162;2023-04-06T10:57:07;91906.53;;;13.64;32.35
7660;BME280;3872;47.902;8.162;2023-04-06T10:59:36;91902.31;;;13.89;31.59
7660;BME280;3872;47.902;8.162;2023-04-06T11:02:02;91911.66;;;13.87;31.07
7660;BME280;3872;47.902;8.162;2023-04-06T11:04:29;91917.72;;;12.87;32.10
7660;BME280;3872;47.902;8.162;2023-04-06T11:06:56;91915.19;;;13.22;32.31
7660;BME280;3872;47.902;8.162;2023-04-06T11:09:24;91902.19;;;13.60;31.58
7660;BME280;3872;47.902;8.162;2023-04-06T11:11:54;91909.50;;;13.54;31.67
7660;BME280;3872;47.902;8.162;2023-04-06T11:14:21;91911.69;;;13.69;30.95
7660;BME280;3872;47.902;8.162;2023-04-06T11:16:49;91897.66;;;13.52;31.50
7660;BME280;3872;47.902;8.162;2023-04-06T11:19:16;91908.53;;;13.93;30.91
7660;BME280;3872;47.902;8.162;2023-04-06T11:21:44;91896.06;;;14.20;30.58
7660;BME280;3872;47.902;8.162;2023-04-06T11:24:13;91897.28;;;14.86;29.78
7660;BME280;3872;47.902;8.162;2023-04-06T11:26:42;91897.19;;;15.03;29.47
7660;BME280;3872;47.902;8.162;2023-04-06T11:29:10;91891.66;;;14.87;28.50
7660;BME280;3872;47.902;8.162;2023-04-06T11:31:41;91890.97;;;14.70;29.54
7660;BME280;3872;47.902;8.162;2023-04-06T11:34:12;91888.91;;;14.11;30.23
7660;BME280;3872;47.902;8.162;2023-04-06T11:36:40;91914.28;;;11.94;32.45
7660;BME280;3872;47.902;8.162;2023-04-06T11:39:08;91889.22;;;14.27;30.55
7660;BME280;3872;47.902;8.162;2023-04-06T11:41:35;91901.91;;;12.96;30.79
7660;BME280;3872;47.902;8.162;2023-04-06T11:44:02;91895.78;;;15.06;28.96
7660;BME280;3872;47.902;8.162;2023-04-06T11:46:28;91887.44;;;16.08;28.56
7660;BME280;3872;47.902;8.162;2023-04-06T11:48:58;91887.09;;;13.78;30.69
7660;BME280;3872;47.902;8.162;2023-04-06T11:51:26;91880.09;;;15.72;29.18
7660;BME280;3872;47.902;8.162;2023-04-06T11:53:52;91888.13;;;14.20;29.64
7660;BME280;3872;47.902;8.162;2023-04-06T11:56:24;91886.22;;;15.63;28.58
7660;BME280;3872;47.902;8.162;2023-04-06T11:58:50;91873.75;;;14.84;29.50
7660;BME280;3872;47.902;8.162;2023-04-06T12:01:17;91879.38;;;15.12;31.19
7660;BME280;3872;47.902;8.162;2023-04-06T12:03:44;91871.38;;;16.37;28.60
7660;BME280;3872;47.902;8.162;2023-04-06T12:06:10;91885.41;;;15.42;28.35
7660;BME280;3872;47.902;8.162;2023-04-06T12:08:38;91875.03;;;14.40;29.12
7660;BME280;3872;47.902;8.162;2023-04-06T12:11:05;91882.25;;;13.45;31.07
7660;BME280;3872;47.902;8.162;2023-04-06T12:13:32;91888.53;;;12.22;32.78
7660;BME280;3872;47.902;8.162;2023-04-06T12:15:58;91875.25;;;13.66;31.39
7660;BME280;3872;47.902;8.162;2023-04-06T12:18:25;91878.47;;;14.24;30.45
7660;BME280;3872;47.902;8.162;2023-04-06T12:20:52;91871.31;;;14.71;29.50
7660;BME280;3872;47.902;8.162;2023-04-06T12:23:18;91878.13;;;15.10;28.77
7660;BME280;3872;47.902;8.162;2023-04-06T12:25:46;91878.38;;;15.25;29.20
7660;BME280;3872;47.902;8.162;2023-04-06T12:28:13;91874.53;;;12.83;30.92
7660;BME280;3872;47.902;8.162;2023-04-06T12:30:40;91878.97;;;12.66;30.58
7660;BME280;3872;47.902;8.162;2023-04-06T12:33:07;91873.63;;;14.26;29.70
7660;BME280;3872;47.902;8.162;2023-04-06T12:35:33;91867.63;;;15.22;28.28
7660;BME280;3872;47.902;8.162;2023-04-06T12:38:00;91870.75;;;14.57;28.67
7660;BME280;3872;47.902;8.162;2023-04-06T12:40:27;91874.16;;;11.75;31.95
7660;BME280;3872;47.902;8.162;2023-04-06T12:42:54;91871.66;;;13.88;29.22
7660;BME280;3872;47.902;8.162;2023-04-06T12:45:21;91871.41;;;14.45;28.15
7660;BME280;3872;47.902;8.162;2023-04-06T12:47:47;91859.88;;;13.60;28.78
7660;BME280;3872;47.902;8.162;2023-04-06T12:50:14;91865.75;;;14.93;27.91
7660;BME280;3872;47.902;8.162;2023-04-06T12:52:40;91867.97;;;15.41;25.94
7660;BME280;3872;47.902;8.162;2023-04-06T12:55:08;91877.00;;;12.88;29.48
7660;BME280;3872;47.902;8.162;2023-04-06T12:57:34;91866.34;;;14.69;27.31
7660;BME280;3872;47.902;8.162;2023-04-06T13:00:05;91863.44;;;13.90;28.08
7660;BME280;3872;47.902;8.162;2023-04-06T13:02:32;91881.72;;;11.90;28.14
7660;BME280;3872;47.902;8.162;2023-04-06T13:04:59;91863.72;;;12.14;29.33
7660;BME280;3872;47.902;8.162;2023-04-06T13:07:26;91860.47;;;13.14;28.58
7660;BME280;3872;47.902;8.162;2023-04-06T13:09:52;91855.81;;;14.90;26.50
7660;BME280;3872;47.902;8.162;2023-04-06T13:12:19;91864.38;;;13.77;26.74
7660;BME280;3872;47.902;8.162;2023-04-06T13:14:45;91864.72;;;12.75;28.06
7660;BME280;3872;47.902;8.162;2023-04-06T13:17:17;91873.34;;;12.19;28.62
7660;BME280;3872;47.902;8.162;2023-04-06T13:19:44;91867.16;;;13.71;26.85
7660;BME280;3872;47.902;8.162;2023-04-06T13:22:10;91873.97;;;11.13;28.15
7660;BME280;3872;47.902;8.162;2023-04-06T13:24:37;91869.97;;;13.23;26.89
7660;BME280;3872;47.902;8.162;2023-04-06T13:27:03;91870.19;;;12.96;26.05